Roganville, Texas
Current Conditions -  °F | °C
As of 11:15 AM on Friday 31 Oct 2014 (Local Time) from KJAS Reporting Station
Clear Clear  
Wind Chill: 68°   Ceiling: Unl
Heat Index: 68°   Visibility: 10mi
Dew Point: 46°   Wind: 10mph
Humidity: 45%   Direction: 340°NNW
Pressure: 30.21"   Gusts: 17mph
Location:  30.7133°N, 93.9985°W
Report Text: KJAS 311615Z AUTO 34009G15KT 10SM CLR 20/08 A3021 RMK AO2 T02010078
Loading
Personal Weather Stations






























Interactive Weather Map
Tropical Storm Tracking
New forecast layout! Learn more

10-Day Weather Forecast

Advertisements
Track Severe Weather on mobile